createdAt,value
2022-10-15T00:17:09.367Z,55.25
2022-10-15T00:19:56.868Z,54.10
2022-10-15T00:22:44.889Z,50.13
2022-10-15T00:25:32.601Z,56.10
2022-10-15T00:28:20.624Z,55.55
2022-10-15T00:31:14.068Z,47.28
2022-10-15T00:34:03.370Z,47.15
2022-10-15T00:36:52.118Z,46.08
2022-10-15T00:39:39.898Z,48.88
2022-10-15T00:42:27.574Z,47.33
2022-10-15T00:45:17.500Z,44.13
2022-10-15T00:48:09.098Z,47.05
2022-10-15T00:50:57.229Z,52.45
2022-10-15T00:53:45.375Z,53.38
2022-10-15T00:56:36.168Z,50.97
2022-10-15T00:59:28.508Z,49.80
2022-10-15T01:02:18.636Z,49.93
2022-10-15T01:05:09.498Z,46.25
2022-10-15T01:07:58.848Z,44.63
2022-10-15T01:10:54.931Z,47.30
2022-10-15T01:13:55.068Z,47.92
2022-10-15T01:16:48.515Z,46.10
2022-10-15T01:20:05.823Z,42.80
2022-10-15T01:23:09.377Z,51.83
2022-10-15T01:26:09.407Z,52.55
2022-10-15T01:29:08.075Z,54.83
2022-10-15T01:32:04.874Z,56.10
2022-10-15T01:34:57.274Z,53.10
2022-10-15T01:37:53.952Z,55.45
2022-10-15T01:40:48.960Z,60.00
2022-10-15T01:43:40.208Z,57.22
2022-10-15T01:47:04.735Z,48.65
2022-10-15T01:49:56.288Z,52.83
2022-10-15T01:52:46.151Z,49.45
2022-10-15T01:55:35.858Z,40.25
2022-10-15T01:58:26.056Z,41.65
2022-10-15T02:01:14.362Z,43.22
2022-10-15T02:04:03.520Z,43.92
2022-10-15T02:06:56.841Z,44.10
2022-10-15T02:09:51.795Z,41.63
2022-10-15T02:12:52.090Z,43.47
2022-10-15T02:15:47.166Z,42.75
2022-10-15T02:18:41.353Z,44.50
2022-10-15T02:21:34.290Z,41.70
2022-10-15T02:24:26.591Z,38.63
2022-10-15T02:27:17.252Z,42.45
2022-10-15T02:30:09.079Z,39.10
2022-10-15T02:32:59.338Z,38.88
2022-10-15T02:35:49.745Z,45.57
2022-10-15T02:38:41.909Z,41.97
2022-10-15T02:41:31.234Z,45.53
2022-10-15T02:44:19.152Z,46.05
2022-10-15T02:47:07.133Z,47.60
2022-10-15T02:49:54.639Z,45.90
2022-10-15T02:52:42.629Z,52.55
2022-10-15T02:55:33.721Z,47.00
2022-10-15T02:58:21.910Z,50.60
2022-10-15T03:06:44.846Z,48.50
2022-10-15T03:09:33.628Z,45.47
2022-10-15T03:12:26.088Z,45.65
2022-10-15T03:15:14.734Z,45.15
2022-10-15T03:18:04.965Z,44.03
2022-10-15T03:20:55.894Z,42.60
2022-10-15T03:23:43.953Z,50.10
2022-10-15T03:26:38.315Z,52.22
2022-10-15T03:29:27.456Z,48.75
2022-10-15T03:32:20.826Z,52.65
2022-10-15T03:35:09.473Z,51.45
2022-10-15T03:37:57.980Z,50.70
2022-10-15T03:40:46.597Z,51.78
2022-10-15T03:43:51.446Z,47.83
2022-10-15T03:46:40.821Z,53.17
2022-10-15T03:49:29.156Z,54.08
2022-10-15T03:52:17.580Z,53.30
2022-10-15T03:55:09.575Z,50.65
2022-10-15T03:57:57.871Z,57.75
2022-10-15T04:00:46.242Z,56.95
2022-10-15T04:03:35.111Z,57.38
2022-10-15T04:06:22.921Z,46.17
2022-10-15T04:09:12.534Z,41.58
2022-10-15T04:12:00.553Z,42.47
2022-10-15T04:14:48.519Z,40.88
2022-10-15T04:17:36.306Z,39.45
2022-10-15T04:20:25.386Z,37.42
2022-10-15T04:23:13.355Z,42.63
2022-10-15T04:26:04.862Z,41.72
2022-10-15T04:28:53.095Z,48.00
2022-10-15T04:31:43.043Z,42.80
2022-10-15T04:34:33.439Z,47.38
2022-10-15T04:37:23.217Z,43.78
2022-10-15T04:40:13.570Z,41.90
2022-10-15T04:43:01.830Z,40.75
2022-10-15T04:45:50.188Z,44.90
2022-10-15T04:48:43.002Z,41.38
2022-10-15T04:51:33.859Z,41.38
2022-10-15T04:54:28.381Z,39.97
2022-10-15T05:06:03.092Z,36.30
2022-10-15T05:28:48.207Z,39.50
2022-10-15T05:31:45.031Z,48.00
2022-10-15T05:34:38.264Z,44.38
2022-10-15T05:37:32.141Z,42.83
2022-10-15T05:40:22.084Z,50.33
2022-10-15T05:43:30.055Z,47.35
2022-10-15T05:46:20.744Z,45.20
2022-10-15T05:49:08.795Z,44.95
2022-10-15T05:52:07.217Z,44.63
2022-10-15T05:55:16.964Z,44.50
2022-10-15T05:58:05.429Z,44.13
2022-10-15T06:00:56.223Z,43.60
2022-10-15T06:03:45.937Z,45.13
2022-10-15T06:06:33.921Z,50.30
2022-10-15T06:09:21.592Z,45.33
2022-10-15T06:12:09.371Z,48.67
2022-10-15T06:14:56.841Z,47.60
2022-10-15T06:17:44.505Z,47.70
2022-10-15T06:20:34.112Z,45.33
2022-10-15T06:23:24.363Z,45.20
2022-10-15T06:26:12.497Z,49.13
2022-10-15T06:29:02.681Z,47.30
2022-10-15T06:31:50.456Z,48.85
2022-10-15T06:34:38.303Z,47.58
2022-10-15T06:37:27.515Z,56.63
2022-10-15T06:40:17.035Z,50.17
2022-10-15T06:43:08.035Z,49.22
2022-10-15T06:45:56.597Z,55.28
2022-10-15T06:48:44.253Z,46.13
2022-10-15T06:51:31.952Z,46.00
2022-10-15T06:54:21.258Z,55.65
2022-10-15T06:57:09.201Z,48.25
2022-10-15T06:59:57.219Z,52.28
2022-10-15T07:13:59.306Z,53.75
2022-10-15T07:16:47.197Z,56.30
2022-10-15T07:19:34.947Z,52.40
2022-10-15T07:22:22.885Z,54.72
2022-10-15T07:25:11.778Z,54.45
2022-10-15T07:28:00.724Z,50.72
2022-10-15T07:30:48.289Z,54.63
2022-10-15T07:33:36.824Z,52.95
2022-10-15T07:36:24.456Z,54.75
2022-10-15T07:39:12.416Z,54.10
2022-10-15T07:42:00.827Z,47.55
2022-10-15T07:44:49.981Z,52.00
2022-10-15T07:47:38.165Z,48.50
2022-10-15T07:50:29.231Z,48.88
2022-10-15T07:53:22.691Z,50.95
2022-10-15T07:56:16.120Z,52.38
2022-10-15T07:59:03.812Z,50.35
2022-10-15T08:01:52.926Z,48.67
2022-10-15T08:04:40.750Z,44.40
2022-10-15T08:07:28.646Z,45.95
2022-10-15T08:32:45.333Z,43.90
2022-10-15T08:35:35.446Z,38.75
2022-10-15T08:38:23.625Z,43.85
2022-10-15T08:41:23.442Z,39.65
2022-10-15T08:44:20.699Z,38.37
2022-10-15T08:47:14.507Z,35.95
2022-10-15T08:50:07.596Z,38.97
2022-10-15T08:52:59.624Z,40.00
2022-10-15T08:55:52.041Z,38.55
2022-10-15T08:58:47.704Z,40.90
2022-10-15T09:01:41.354Z,43.92
2022-10-15T09:04:35.645Z,40.40
2022-10-15T09:07:33.312Z,40.67
2022-10-15T09:10:33.328Z,36.45
2022-10-15T09:13:27.232Z,35.33
2022-10-15T09:16:18.456Z,34.50
2022-10-15T09:19:12.963Z,40.22
2022-10-15T09:22:03.383Z,37.90
2022-10-15T09:24:51.083Z,38.47
2022-10-15T09:27:40.267Z,39.28
2022-10-15T09:30:34.818Z,32.47
2022-10-15T09:33:34.279Z,35.33
2022-10-15T09:36:34.947Z,37.85
2022-10-15T09:39:42.676Z,41.53
2022-10-15T09:42:33.479Z,46.45
2022-10-15T09:45:25.241Z,44.30
2022-10-15T09:48:19.979Z,40.65
2022-10-15T09:51:19.489Z,46.50
2022-10-15T09:54:16.242Z,40.63
2022-10-15T09:57:04.162Z,36.50
2022-10-15T09:59:57.000Z,35.00
2022-10-15T10:02:46.263Z,35.33
2022-10-15T10:05:37.566Z,38.92
2022-10-15T10:08:26.958Z,37.92
2022-10-15T10:11:15.479Z,37.20
2022-10-15T10:14:06.052Z,35.65
2022-10-15T10:17:16.660Z,36.28
2022-10-15T10:20:16.394Z,37.38
2022-10-15T10:23:22.348Z,35.58
2022-10-15T10:26:12.557Z,32.05
2022-10-15T10:29:09.996Z,29.08
2022-10-15T10:32:12.367Z,27.15
2022-10-15T10:35:01.003Z,28.75
2022-10-15T10:37:50.409Z,31.02
2022-10-15T10:40:38.067Z,27.20
2022-10-15T10:43:34.354Z,25.52
2022-10-15T10:46:26.036Z,23.92
2022-10-15T10:49:13.726Z,27.58
2022-10-15T10:52:01.793Z,29.55
2022-10-15T10:54:58.937Z,30.30
2022-10-15T10:57:54.780Z,29.25
2022-10-15T11:00:45.501Z,29.10
2022-10-15T11:03:37.273Z,26.88
2022-10-15T11:06:42.217Z,28.38
2022-10-15T11:09:43.318Z,28.58
2022-10-15T11:12:51.554Z,27.45
2022-10-15T11:15:47.178Z,26.55
2022-10-15T11:18:54.429Z,29.05
2022-10-15T11:21:53.020Z,26.02
2022-10-15T11:24:49.149Z,23.20
2022-10-15T11:28:04.398Z,24.45
2022-10-15T11:31:00.987Z,20.38
2022-10-15T11:40:04.369Z,17.48
2022-10-15T11:42:59.440Z,16.55
2022-10-15T13:55:23.148Z,22.58
2022-10-15T13:58:22.375Z,24.40
2022-10-15T14:01:17.377Z,25.85
2022-10-15T14:04:05.588Z,21.70
2022-10-15T14:06:57.151Z,22.40
2022-10-15T14:09:48.630Z,23.73
2022-10-15T14:12:36.487Z,23.45
2022-10-15T14:15:42.828Z,24.73
2022-10-15T14:18:45.234Z,23.63
2022-10-15T14:21:37.045Z,23.95
2022-10-15T14:24:31.099Z,24.83
2022-10-15T14:27:22.610Z,23.50
2022-10-15T14:30:16.619Z,24.50
2022-10-15T14:33:04.330Z,25.92
2022-10-15T14:36:07.830Z,27.63
2022-10-15T14:38:56.915Z,30.35
2022-10-15T14:41:57.506Z,29.05
2022-10-15T14:44:46.940Z,29.63
2022-10-15T14:47:34.633Z,30.30
2022-10-15T14:50:26.066Z,32.78
2022-10-15T14:53:21.231Z,33.45
2022-10-15T14:56:15.928Z,32.58
2022-10-15T14:59:04.451Z,31.40
2022-10-15T15:02:02.618Z,28.70
2022-10-15T15:05:08.143Z,31.60
2022-10-15T15:07:58.009Z,33.50
2022-10-15T15:13:43.624Z,31.65
2022-10-15T15:16:31.362Z,33.78
2022-10-15T15:19:18.943Z,31.70
2022-10-15T15:22:08.516Z,33.05
2022-10-15T15:24:56.929Z,33.45
2022-10-15T15:27:46.189Z,31.25
2022-10-15T15:30:35.708Z,36.13
2022-10-15T15:33:23.472Z,33.50
2022-10-15T15:36:17.658Z,35.63
2022-10-15T15:50:29.930Z,43.75
2022-10-15T19:09:53.087Z,26.20
2022-10-15T19:12:47.004Z,28.40
2022-10-15T19:15:36.804Z,26.38
2022-10-15T19:18:24.920Z,29.02
2022-10-15T19:21:13.058Z,28.42
2022-10-15T19:24:02.264Z,28.25
2022-10-15T19:26:51.250Z,30.48
2022-10-15T19:29:39.582Z,28.60
2022-10-15T19:32:27.561Z,30.15
2022-10-15T19:35:15.295Z,26.67
2022-10-15T19:38:03.449Z,27.45
2022-10-15T19:40:53.243Z,26.70
2022-10-15T19:43:43.901Z,34.55
2022-10-15T19:46:32.074Z,30.13
2022-10-15T19:49:19.780Z,29.65
2022-10-15T19:52:07.774Z,29.88
2022-10-15T19:54:56.952Z,28.13
2022-10-15T19:57:46.250Z,33.50
2022-10-15T20:00:34.018Z,28.77
2022-10-15T20:31:28.461Z,23.98
2022-10-15T20:34:16.441Z,29.45
2022-10-15T20:48:21.187Z,35.40
2022-10-15T20:51:10.786Z,34.17
2022-10-15T20:54:00.245Z,32.38
2022-10-15T20:56:48.177Z,30.15
2022-10-15T20:59:36.011Z,32.28
2022-10-15T21:02:24.408Z,29.58
2022-10-15T21:05:14.020Z,33.03
2022-10-15T21:08:02.059Z,39.03
2022-10-15T21:10:49.587Z,33.47
2022-10-15T21:13:37.642Z,33.58
2022-10-15T21:16:28.213Z,30.08
2022-10-15T21:19:16.272Z,29.42
2022-10-15T21:22:05.761Z,29.83
2022-10-15T21:24:53.624Z,33.20
2022-10-15T21:27:42.461Z,32.83
2022-10-15T21:30:30.340Z,40.78
2022-10-15T21:33:18.246Z,38.17
2022-10-15T21:36:14.155Z,42.97
2022-10-15T21:39:06.674Z,49.65
2022-10-15T21:41:54.266Z,46.63
2022-10-15T21:44:42.100Z,53.97
2022-10-15T21:47:30.037Z,55.15
2022-10-15T21:50:18.416Z,47.75
2022-10-15T21:53:06.261Z,52.83
2022-10-15T21:55:55.812Z,58.65
2022-10-15T21:58:43.903Z,55.63
2022-10-15T22:01:33.742Z,53.03
2022-10-15T22:04:21.792Z,60.25
2022-10-15T22:07:09.973Z,60.80
2022-10-15T22:09:57.588Z,57.20
2022-10-15T22:12:52.426Z,54.33
2022-10-15T22:15:40.139Z,54.67
2022-10-15T22:18:28.192Z,48.38
2022-10-15T22:21:18.441Z,53.30
2022-10-15T22:24:08.129Z,47.67
2022-10-15T22:26:56.087Z,44.22
2022-10-15T22:29:45.187Z,49.72
2022-10-15T22:40:56.926Z,46.20
2022-10-15T22:43:44.924Z,39.38
